sensor_id;sensor_type;location;lat;lon;timestamp;pressure;altitude;pressure_sealevel;temperature;humidity
12951;BME280;6540;50.858;7.232;2022-08-19T00:02:23;51309.91;;;-142.34;23.44
12951;BME280;6540;50.858;7.232;2022-08-19T00:04:48;51356.31;;;-142.34;23.83
12951;BME280;6540;50.858;7.232;2022-08-19T00:07:18;51324.03;;;-142.34;23.68
12951;BME280;6540;50.858;7.232;2022-08-19T00:09:44;51390.59;;;-142.34;24.71
12951;BME280;6540;50.858;7.232;2022-08-19T00:12:10;51384.53;;;-142.34;24.55
12951;BME280;6540;50.858;7.232;2022-08-19T00:14:36;51428.91;;;-142.34;25.12
12951;BME280;6540;50.858;7.232;2022-08-19T00:17:04;51372.44;;;-142.34;24.44
12951;BME280;6540;50.858;7.232;2022-08-19T00:19:30;51370.41;;;-142.34;24.44
12951;BME280;6540;50.858;7.232;2022-08-19T00:21:56;51330.06;;;-142.34;23.12
12951;BME280;6540;50.858;7.232;2022-08-19T00:24:21;51301.84;;;-142.34;23.56
12951;BME280;6540;50.858;7.232;2022-08-19T00:26:48;51366.38;;;-142.34;23.50
12951;BME280;6540;50.858;7.232;2022-08-19T00:29:15;51313.94;;;-142.34;23.16
12951;BME280;6540;50.858;7.232;2022-08-19T00:31:41;51322.00;;;-142.34;23.29
12951;BME280;6540;50.858;7.232;2022-08-19T00:34:08;51348.22;;;-142.34;23.61
12951;BME280;6540;50.858;7.232;2022-08-19T00:36:34;51380.50;;;-142.34;24.02
12951;BME280;6540;50.858;7.232;2022-08-19T00:39:00;51382.53;;;-142.34;24.59
12951;BME280;6540;50.858;7.232;2022-08-19T00:41:26;51374.44;;;-142.34;23.85
12951;BME280;6540;50.858;7.232;2022-08-19T00:46:30;51338.16;;;-142.34;23.60
12951;BME280;6540;50.858;7.232;2022-08-19T00:48:57;51334.13;;;-142.34;23.70
12951;BME280;6540;50.858;7.232;2022-08-19T00:51:24;51338.16;;;-142.34;23.70
12951;BME280;6540;50.858;7.232;2022-08-19T00:53:52;51334.13;;;-142.34;23.62
12951;BME280;6540;50.858;7.232;2022-08-19T00:56:17;51354.28;;;-142.34;23.39
12951;BME280;6540;50.858;7.232;2022-08-19T00:58:43;51356.31;;;-142.34;24.24
12951;BME280;6540;50.858;7.232;2022-08-19T01:01:09;51418.84;;;-142.34;24.63
12951;BME280;6540;50.858;7.232;2022-08-19T01:03:34;51426.91;;;-142.34;24.63
12951;BME280;6540;50.858;7.232;2022-08-19T01:06:00;51420.84;;;-142.34;24.55
12951;BME280;6540;50.858;7.232;2022-08-19T01:08:26;51392.59;;;-142.34;23.41
12951;BME280;6540;50.858;7.232;2022-08-19T01:10:58;51368.41;;;-142.34;23.86
12951;BME280;6540;50.858;7.232;2022-08-19T01:13:27;51382.53;;;-142.34;24.39
12951;BME280;6540;50.858;7.232;2022-08-19T01:16:12;51311.94;;;-142.34;23.07
12951;BME280;6540;50.858;7.232;2022-08-19T01:18:40;51358.31;;;-142.34;23.81
12951;BME280;6540;50.858;7.232;2022-08-19T01:21:16;51394.63;;;-142.34;24.04
12951;BME280;6540;50.858;7.232;2022-08-19T01:23:44;51414.78;;;-142.34;24.68
12951;BME280;6540;50.858;7.232;2022-08-19T01:26:16;51406.72;;;-142.34;24.04
12951;BME280;6540;50.858;7.232;2022-08-19T01:28:44;51447.06;;;-142.34;25.57
12951;BME280;6540;50.858;7.232;2022-08-19T01:31:16;51376.47;;;-142.34;23.91
12951;BME280;6540;50.858;7.232;2022-08-19T01:33:42;51378.50;;;-142.34;24.00
12951;BME280;6540;50.858;7.232;2022-08-19T01:36:14;51358.31;;;-142.34;23.84
12951;BME280;6540;50.858;7.232;2022-08-19T01:38:41;51374.44;;;-142.34;23.98
12951;BME280;6540;50.858;7.232;2022-08-19T01:41:08;51400.69;;;-142.34;24.21
12951;BME280;6540;50.858;7.232;2022-08-19T01:43:34;51402.69;;;-142.34;24.18
12951;BME280;6540;50.858;7.232;2022-08-19T01:45:59;51430.94;;;-142.34;24.66
12951;BME280;6540;50.858;7.232;2022-08-19T01:48:26;51416.81;;;-142.34;24.41
12951;BME280;6540;50.858;7.232;2022-08-19T01:50:51;51402.69;;;-142.34;24.10
12951;BME280;6540;50.858;7.232;2022-08-19T01:53:17;51358.31;;;-142.34;23.58
12951;BME280;6540;50.858;7.232;2022-08-19T01:55:43;51370.41;;;-142.34;23.75
12951;BME280;6540;50.858;7.232;2022-08-19T01:58:13;51414.78;;;-142.34;24.64
12951;BME280;6540;50.858;7.232;2022-08-19T02:00:40;51430.94;;;-142.34;24.17
12951;BME280;6540;50.858;7.232;2022-08-19T02:03:05;51402.69;;;-142.34;24.15
12951;BME280;6540;50.858;7.232;2022-08-19T02:05:31;51404.72;;;-142.34;24.03
12951;BME280;6540;50.858;7.232;2022-08-19T02:07:57;51414.78;;;-142.34;23.95
12951;BME280;6540;50.858;7.232;2022-08-19T02:10:24;51340.16;;;-142.34;23.49
12951;BME280;6540;50.858;7.232;2022-08-19T02:12:50;51356.31;;;-142.34;22.99
12951;BME280;6540;50.858;7.232;2022-08-19T02:15:17;51344.19;;;-142.34;23.31
12951;BME280;6540;50.858;7.232;2022-08-19T02:17:44;51348.22;;;-142.34;23.43
12951;BME280;6540;50.858;7.232;2022-08-19T02:20:10;51418.84;;;-142.34;24.63
12951;BME280;6540;50.858;7.232;2022-08-19T02:22:35;51422.88;;;-142.34;24.44
12951;BME280;6540;50.858;7.232;2022-08-19T02:25:01;51430.94;;;-142.34;24.39
12951;BME280;6540;50.858;7.232;2022-08-19T02:27:27;51463.22;;;-142.34;25.17
12951;BME280;6540;50.858;7.232;2022-08-19T02:29:53;51453.13;;;-142.34;25.80
12951;BME280;6540;50.858;7.232;2022-08-19T02:32:19;51406.72;;;-142.34;25.00
12951;BME280;6540;50.858;7.232;2022-08-19T02:34:47;51374.44;;;-142.34;23.99
12951;BME280;6540;50.858;7.232;2022-08-19T02:37:13;51354.28;;;-142.34;23.21
12951;BME280;6540;50.858;7.232;2022-08-19T02:40:02;51338.16;;;-142.34;23.33
12951;BME280;6540;50.858;7.232;2022-08-19T02:42:28;51362.34;;;-142.34;23.90
12951;BME280;6540;50.858;7.232;2022-08-19T02:44:55;51370.41;;;-142.34;24.03
12951;BME280;6540;50.858;7.232;2022-08-19T02:47:21;51370.41;;;-142.34;23.88
12951;BME280;6540;50.858;7.232;2022-08-19T02:49:46;51394.63;;;-142.34;23.60
12951;BME280;6540;50.858;7.232;2022-08-19T02:52:14;51386.56;;;-142.34;23.38
12951;BME280;6540;50.858;7.232;2022-08-19T02:54:40;51354.28;;;-142.34;23.71
12951;BME280;6540;50.858;7.232;2022-08-19T02:57:05;51382.53;;;-142.34;23.76
12951;BME280;6540;50.858;7.232;2022-08-19T02:59:31;51406.72;;;-142.34;24.44
12951;BME280;6540;50.858;7.232;2022-08-19T03:01:57;51392.59;;;-142.34;23.75
12951;BME280;6540;50.858;7.232;2022-08-19T03:04:22;51374.44;;;-142.34;23.57
12951;BME280;6540;50.858;7.232;2022-08-19T03:06:49;51372.44;;;-142.34;23.48
12951;BME280;6540;50.858;7.232;2022-08-19T03:09:15;51392.59;;;-142.34;24.04
12951;BME280;6540;50.858;7.232;2022-08-19T03:11:41;51410.75;;;-142.34;23.92
12951;BME280;6540;50.858;7.232;2022-08-19T03:14:08;51386.56;;;-142.34;24.44
12951;BME280;6540;50.858;7.232;2022-08-19T03:16:41;51350.25;;;-142.34;23.72
12951;BME280;6540;50.858;7.232;2022-08-19T03:19:06;51410.75;;;-142.34;24.14
12951;BME280;6540;50.858;7.232;2022-08-19T03:21:34;51402.69;;;-142.34;24.19
12951;BME280;6540;50.858;7.232;2022-08-19T03:24:02;51380.50;;;-142.34;24.02
12951;BME280;6540;50.858;7.232;2022-08-19T03:26:29;51418.84;;;-142.34;24.25
12951;BME280;6540;50.858;7.232;2022-08-19T03:28:54;51402.69;;;-142.34;24.12
12951;BME280;6540;50.858;7.232;2022-08-19T03:31:21;51414.78;;;-142.34;24.60
12951;BME280;6540;50.858;7.232;2022-08-19T03:33:51;51418.84;;;-142.34;24.45
12951;BME280;6540;50.858;7.232;2022-08-19T03:36:25;51386.56;;;-142.34;23.83
12951;BME280;6540;50.858;7.232;2022-08-19T03:38:54;51342.19;;;-142.34;23.65
12951;BME280;6540;50.858;7.232;2022-08-19T03:41:26;51422.88;;;-142.34;24.65
12951;BME280;6540;50.858;7.232;2022-08-19T03:43:53;51364.38;;;-142.34;23.76
12951;BME280;6540;50.858;7.232;2022-08-19T03:46:22;51378.50;;;-142.34;24.00
12951;BME280;6540;50.858;7.232;2022-08-19T03:48:49;51380.50;;;-142.34;24.16
12951;BME280;6540;50.858;7.232;2022-08-19T03:51:28;51362.34;;;-142.34;23.71
12951;BME280;6540;50.858;7.232;2022-08-19T03:53:56;51398.66;;;-142.34;23.81
12951;BME280;6540;50.858;7.232;2022-08-19T03:56:23;51426.91;;;-142.34;24.27
12951;BME280;6540;50.858;7.232;2022-08-19T03:58:51;51386.56;;;-142.34;23.83
12951;BME280;6540;50.858;7.232;2022-08-19T04:01:20;51362.34;;;-142.34;23.68
12951;BME280;6540;50.858;7.232;2022-08-19T04:03:47;51414.78;;;-142.34;24.16
12951;BME280;6540;50.858;7.232;2022-08-19T04:06:18;51414.78;;;-142.34;24.00
12951;BME280;6540;50.858;7.232;2022-08-19T04:08:45;51424.88;;;-142.34;24.30
12951;BME280;6540;50.858;7.232;2022-08-19T04:11:16;51443.03;;;-142.34;24.80
12951;BME280;6540;50.858;7.232;2022-08-19T04:13:42;51430.94;;;-142.34;24.41
12951;BME280;6540;50.858;7.232;2022-08-19T04:16:10;51414.78;;;-142.34;23.94
12951;BME280;6540;50.858;7.232;2022-08-19T04:18:36;51414.78;;;-142.34;24.36
12951;BME280;6540;50.858;7.232;2022-08-19T04:21:03;51402.69;;;-142.34;24.64
12951;BME280;6540;50.858;7.232;2022-08-19T04:23:29;51471.28;;;-142.34;24.50
12951;BME280;6540;50.858;7.232;2022-08-19T04:25:54;51416.81;;;-142.34;24.55
12951;BME280;6540;50.858;7.232;2022-08-19T04:28:20;51414.78;;;-142.34;23.86
12951;BME280;6540;50.858;7.232;2022-08-19T04:30:48;51402.69;;;-142.34;24.05
12951;BME280;6540;50.858;7.232;2022-08-19T04:33:16;51467.25;;;-142.34;24.91
12951;BME280;6540;50.858;7.232;2022-08-19T04:35:45;51439.00;;;-142.34;24.55
12951;BME280;6540;50.858;7.232;2022-08-19T04:38:12;51426.91;;;-142.34;24.59
12951;BME280;6540;50.858;7.232;2022-08-19T04:40:43;51394.63;;;-142.34;23.89
12951;BME280;6540;50.858;7.232;2022-08-19T04:43:28;51386.56;;;-142.34;23.46
12951;BME280;6540;50.858;7.232;2022-08-19T04:45:54;51378.50;;;-142.34;23.55
12951;BME280;6540;50.858;7.232;2022-08-19T04:48:20;51396.63;;;-142.34;23.76
12951;BME280;6540;50.858;7.232;2022-08-19T04:50:51;51390.59;;;-142.34;24.16
12951;BME280;6540;50.858;7.232;2022-08-19T04:53:18;51388.56;;;-142.34;23.90
12951;BME280;6540;50.858;7.232;2022-08-19T04:55:43;51402.69;;;-142.34;23.83
12951;BME280;6540;50.858;7.232;2022-08-19T04:58:09;51449.09;;;-142.34;24.25
12951;BME280;6540;50.858;7.232;2022-08-19T05:00:37;51430.94;;;-142.34;24.19
12951;BME280;6540;50.858;7.232;2022-08-19T05:03:03;51414.78;;;-142.34;24.29
12951;BME280;6540;50.858;7.232;2022-08-19T05:05:28;51374.44;;;-142.34;23.83
12951;BME280;6540;50.858;7.232;2022-08-19T05:07:54;51420.84;;;-142.34;23.78
12951;BME280;6540;50.858;7.232;2022-08-19T05:10:20;51396.63;;;-142.34;23.74
12951;BME280;6540;50.858;7.232;2022-08-19T05:12:46;51416.81;;;-142.34;24.67
12951;BME280;6540;50.858;7.232;2022-08-19T05:15:11;51430.94;;;-142.34;24.63
12951;BME280;6540;50.858;7.232;2022-08-19T05:17:37;51378.50;;;-142.34;23.87
12951;BME280;6540;50.858;7.232;2022-08-19T05:20:04;51354.28;;;-142.34;23.58
12951;BME280;6540;50.858;7.232;2022-08-19T05:22:48;51366.38;;;-142.34;23.45
12951;BME280;6540;50.858;7.232;2022-08-19T05:25:18;51350.25;;;-142.34;23.34
12951;BME280;6540;50.858;7.232;2022-08-19T05:27:44;51350.25;;;-142.34;23.41
12951;BME280;6540;50.858;7.232;2022-08-19T05:30:10;51354.28;;;-142.34;23.33
12951;BME280;6540;50.858;7.232;2022-08-19T05:32:36;51402.69;;;-142.34;23.99
12951;BME280;6540;50.858;7.232;2022-08-19T05:35:03;51402.69;;;-142.34;24.37
12951;BME280;6540;50.858;7.232;2022-08-19T05:37:28;51434.97;;;-142.34;24.33
12951;BME280;6540;50.858;7.232;2022-08-19T05:39:54;51360.34;;;-142.34;23.67
12951;BME280;6540;50.858;7.232;2022-08-19T05:42:20;51356.31;;;-142.34;23.53
12951;BME280;6540;50.858;7.232;2022-08-19T05:44:46;51398.66;;;-142.34;23.97
12951;BME280;6540;50.858;7.232;2022-08-19T05:47:14;51477.31;;;-142.34;25.14
12951;BME280;6540;50.858;7.232;2022-08-19T05:49:40;51422.88;;;-142.34;24.50
12951;BME280;6540;50.858;7.232;2022-08-19T05:52:09;51350.25;;;-142.34;23.02
12951;BME280;6540;50.858;7.232;2022-08-19T05:54:37;51313.94;;;-142.34;23.02
12951;BME280;6540;50.858;7.232;2022-08-19T05:57:05;51305.88;;;-142.34;23.32
12951;BME280;6540;50.858;7.232;2022-08-19T05:59:31;51340.16;;;-142.34;23.68
12951;BME280;6540;50.858;7.232;2022-08-19T06:01:56;51406.72;;;-142.34;24.44
12951;BME280;6540;50.858;7.232;2022-08-19T06:04:23;51406.72;;;-142.34;24.78
12951;BME280;6540;50.858;7.232;2022-08-19T06:06:51;51418.84;;;-142.34;25.20
12951;BME280;6540;50.858;7.232;2022-08-19T06:09:18;51406.72;;;-142.34;24.84
12951;BME280;6540;50.858;7.232;2022-08-19T06:11:52;51447.06;;;-142.34;25.24
12951;BME280;6540;50.858;7.232;2022-08-19T06:14:25;51398.66;;;-142.34;24.73
12951;BME280;6540;50.858;7.232;2022-08-19T06:16:50;51410.75;;;-142.34;24.75
12951;BME280;6540;50.858;7.232;2022-08-19T06:19:19;51400.69;;;-142.34;24.74
12951;BME280;6540;50.858;7.232;2022-08-19T06:21:47;51326.03;;;-142.34;23.73
12951;BME280;6540;50.858;7.232;2022-08-19T06:24:15;51277.63;;;-142.34;22.88
12951;BME280;6540;50.858;7.232;2022-08-19T06:26:43;51326.03;;;-142.34;23.65
12951;BME280;6540;50.858;7.232;2022-08-19T06:29:11;51295.78;;;-142.34;23.04
12951;BME280;6540;50.858;7.232;2022-08-19T06:31:37;51309.91;;;-142.34;23.17
12951;BME280;6540;50.858;7.232;2022-08-19T06:34:05;51366.38;;;-142.34;23.95
12951;BME280;6540;50.858;7.232;2022-08-19T06:36:40;51309.91;;;-142.34;23.48
12951;BME280;6540;50.858;7.232;2022-08-19T06:39:16;51289.75;;;-142.34;23.41
12951;BME280;6540;50.858;7.232;2022-08-19T06:41:45;51287.72;;;-142.34;23.33
12951;BME280;6540;50.858;7.232;2022-08-19T06:44:12;51330.06;;;-142.34;23.86
12951;BME280;6540;50.858;7.232;2022-08-19T06:46:39;51388.56;;;-142.34;25.39
12951;BME280;6540;50.858;7.232;2022-08-19T06:49:05;51271.59;;;-142.34;23.13
12951;BME280;6540;50.858;7.232;2022-08-19T06:51:34;51311.94;;;-142.34;24.16
12951;BME280;6540;50.858;7.232;2022-08-19T06:53:59;51291.75;;;-142.34;23.94
12951;BME280;6540;50.858;7.232;2022-08-19T06:56:28;51241.34;;;-142.34;22.97
12951;BME280;6540;50.858;7.232;2022-08-19T06:59:05;51194.94;;;-142.34;22.82
12951;BME280;6540;50.858;7.232;2022-08-19T07:01:35;51198.97;;;-142.34;22.72
12951;BME280;6540;50.858;7.232;2022-08-19T07:04:03;51188.88;;;-142.34;22.76
12951;BME280;6540;50.858;7.232;2022-08-19T07:06:28;51211.06;;;-142.34;22.73
12951;BME280;6540;50.858;7.232;2022-08-19T07:08:57;51184.84;;;-142.34;22.89
12951;BME280;6540;50.858;7.232;2022-08-19T07:11:23;51201.00;;;-142.34;22.39
12951;BME280;6540;50.858;7.232;2022-08-19T07:13:48;51188.88;;;-142.34;22.63
12951;BME280;6540;50.858;7.232;2022-08-19T07:16:17;51184.84;;;-142.34;22.31
12951;BME280;6540;50.858;7.232;2022-08-19T07:18:48;51160.66;;;-142.34;22.81
12951;BME280;6540;50.858;7.232;2022-08-19T07:21:19;51156.63;;;-142.34;22.32
12951;BME280;6540;50.858;7.232;2022-08-19T07:23:45;51176.78;;;-142.34;22.93
12951;BME280;6540;50.858;7.232;2022-08-19T07:26:22;51138.47;;;-142.34;22.34
12951;BME280;6540;50.858;7.232;2022-08-19T07:28:48;51209.06;;;-142.34;22.67
12951;BME280;6540;50.858;7.232;2022-08-19T07:31:16;51261.50;;;-142.34;23.70
12951;BME280;6540;50.858;7.232;2022-08-19T07:33:44;51174.78;;;-142.34;22.80
12951;BME280;6540;50.858;7.232;2022-08-19T07:36:11;51243.34;;;-142.34;23.94
12951;BME280;6540;50.858;7.232;2022-08-19T07:38:40;51330.06;;;-142.34;24.81
12951;BME280;6540;50.858;7.232;2022-08-19T07:41:07;51285.72;;;-142.34;24.81
12951;BME280;6540;50.858;7.232;2022-08-19T07:43:34;51247.38;;;-142.34;23.91
12951;BME280;6540;50.858;7.232;2022-08-19T07:45:59;51217.13;;;-142.34;23.27
12951;BME280;6540;50.858;7.232;2022-08-19T07:48:27;51176.78;;;-142.34;22.87
12951;BME280;6540;50.858;7.232;2022-08-19T07:50:54;51104.19;;;-142.34;22.49
12951;BME280;6540;50.858;7.232;2022-08-19T07:53:21;51251.41;;;-142.34;23.81
12951;BME280;6540;50.858;7.232;2022-08-19T07:55:47;51196.97;;;-142.34;23.55
12951;BME280;6540;50.858;7.232;2022-08-19T07:58:17;51156.63;;;-142.34;22.79
12951;BME280;6540;50.858;7.232;2022-08-19T08:00:46;51249.41;;;-142.34;24.09
12951;BME280;6540;50.858;7.232;2022-08-19T08:03:13;51196.97;;;-142.34;23.69
12951;BME280;6540;50.858;7.232;2022-08-19T08:05:38;51330.06;;;-142.34;25.69
12951;BME280;6540;50.858;7.232;2022-08-19T08:08:23;51366.38;;;-142.34;26.43
12951;BME280;6540;50.858;7.232;2022-08-19T08:11:07;51281.66;;;-142.34;24.75
12951;BME280;6540;50.858;7.232;2022-08-19T08:13:34;51263.53;;;-142.34;24.22
12951;BME280;6540;50.858;7.232;2022-08-19T08:16:01;51324.03;;;-142.34;26.15
12951;BME280;6540;50.858;7.232;2022-08-19T08:18:27;51215.09;;;-142.34;24.33
12951;BME280;6540;50.858;7.232;2022-08-19T08:20:52;51283.69;;;-142.34;24.61
12951;BME280;6540;50.858;7.232;2022-08-19T08:23:17;51198.97;;;-142.34;23.82
12951;BME280;6540;50.858;7.232;2022-08-19T08:25:56;51307.88;;;-142.34;25.37
12951;BME280;6540;50.858;7.232;2022-08-19T08:28:22;51398.66;;;-142.34;26.85
12951;BME280;6540;50.858;7.232;2022-08-19T08:30:48;51211.06;;;-142.34;24.12
12951;BME280;6540;50.858;7.232;2022-08-19T08:33:22;51338.16;;;-142.34;25.98
12951;BME280;6540;50.858;7.232;2022-08-19T08:35:48;51227.22;;;-142.34;23.43
12951;BME280;6540;50.858;7.232;2022-08-19T08:38:14;51273.59;;;-142.34;24.48
12951;BME280;6540;50.858;7.232;2022-08-19T08:40:52;51164.69;;;-142.34;23.86
12951;BME280;6540;50.858;7.232;2022-08-19T08:46:03;51328.06;;;-142.34;25.83
12951;BME280;6540;50.858;7.232;2022-08-19T08:51:03;51192.91;;;-142.34;23.65
12951;BME280;6540;50.858;7.232;2022-08-19T08:53:31;51287.72;;;-142.34;24.95
12951;BME280;6540;50.858;7.232;2022-08-19T08:55:57;51233.25;;;-142.34;24.39
12951;BME280;6540;50.858;7.232;2022-08-19T08:58:32;51398.66;;;-142.34;26.26
12951;BME280;6540;50.858;7.232;2022-08-19T09:01:09;51277.63;;;-142.34;24.53
12951;BME280;6540;50.858;7.232;2022-08-19T09:03:37;51289.75;;;-142.34;24.36
12951;BME280;6540;50.858;7.232;2022-08-19T09:06:07;51239.31;;;-142.34;23.36
12951;BME280;6540;50.858;7.232;2022-08-19T09:11:23;51404.72;;;-142.34;26.65
12951;BME280;6540;50.858;7.232;2022-08-19T09:16:41;51439.00;;;-142.34;27.03
12951;BME280;6540;50.858;7.232;2022-08-19T09:19:07;51346.22;;;-142.34;25.09
12951;BME280;6540;50.858;7.232;2022-08-19T09:21:33;51283.69;;;-142.34;24.09
12951;BME280;6540;50.858;7.232;2022-08-19T09:24:01;51346.22;;;-142.34;25.15
12951;BME280;6540;50.858;7.232;2022-08-19T09:26:27;51245.38;;;-142.34;23.15
12951;BME280;6540;50.858;7.232;2022-08-19T09:28:53;51281.66;;;-142.34;23.57
12951;BME280;6540;50.858;7.232;2022-08-19T09:31:25;51299.81;;;-142.34;24.00
12951;BME280;6540;50.858;7.232;2022-08-19T09:33:51;51297.81;;;-142.34;23.74
12951;BME280;6540;50.858;7.232;2022-08-19T09:36:20;51273.59;;;-142.34;23.82
12951;BME280;6540;50.858;7.232;2022-08-19T09:38:47;51330.06;;;-142.34;23.65
12951;BME280;6540;50.858;7.232;2022-08-19T09:41:16;51186.88;;;-142.34;22.50
12951;BME280;6540;50.858;7.232;2022-08-19T09:43:45;51350.25;;;-142.34;24.75
12951;BME280;6540;50.858;7.232;2022-08-19T09:46:11;51205.03;;;-142.34;23.04
12951;BME280;6540;50.858;7.232;2022-08-19T09:48:38;51106.19;;;-142.34;22.10
12951;BME280;6540;50.858;7.232;2022-08-19T09:51:11;51223.19;;;-142.34;23.00
12951;BME280;6540;50.858;7.232;2022-08-19T09:53:41;51309.91;;;-142.34;24.13
12951;BME280;6540;50.858;7.232;2022-08-19T09:56:06;51172.75;;;-142.34;22.32
12951;BME280;6540;50.858;7.232;2022-08-19T09:58:33;51186.88;;;-142.34;22.91
12951;BME280;6540;50.858;7.232;2022-08-19T10:01:00;51150.56;;;-142.34;22.89
12951;BME280;6540;50.858;7.232;2022-08-19T10:03:28;51245.38;;;-142.34;23.59
12951;BME280;6540;50.858;7.232;2022-08-19T10:05:54;51118.28;;;-142.34;21.87
12951;BME280;6540;50.858;7.232;2022-08-19T10:08:23;51241.34;;;-142.34;23.40
12951;BME280;6540;50.858;7.232;2022-08-19T10:10:51;51172.75;;;-142.34;22.65
12951;BME280;6540;50.858;7.232;2022-08-19T10:13:22;51233.25;;;-142.34;22.82
12951;BME280;6540;50.858;7.232;2022-08-19T10:15:50;51396.63;;;-142.34;25.59
12951;BME280;6540;50.858;7.232;2022-08-19T10:18:18;51217.13;;;-142.34;22.77
12951;BME280;6540;50.858;7.232;2022-08-19T10:20:45;51176.78;;;-142.34;22.50
12951;BME280;6540;50.858;7.232;2022-08-19T10:23:11;51124.34;;;-142.34;21.72
12951;BME280;6540;50.858;7.232;2022-08-19T10:25:37;51196.97;;;-142.34;22.64
12951;BME280;6540;50.858;7.232;2022-08-19T10:28:03;51229.22;;;-142.34;23.56
12951;BME280;6540;50.858;7.232;2022-08-19T10:30:29;51340.16;;;-142.34;24.89
12951;BME280;6540;50.858;7.232;2022-08-19T10:32:55;51235.28;;;-142.34;23.53
12951;BME280;6540;50.858;7.232;2022-08-19T10:35:20;51168.72;;;-142.34;22.43
12951;BME280;6540;50.858;7.232;2022-08-19T10:37:45;51198.97;;;-142.34;22.51
12951;BME280;6540;50.858;7.232;2022-08-19T10:40:11;51217.13;;;-142.34;23.19
12951;BME280;6540;50.858;7.232;2022-08-19T10:42:37;51227.22;;;-142.34;23.16
12951;BME280;6540;50.858;7.232;2022-08-19T10:45:04;51307.88;;;-142.34;24.53
12951;BME280;6540;50.858;7.232;2022-08-19T10:47:32;51184.84;;;-142.34;23.21
12951;BME280;6540;50.858;7.232;2022-08-19T10:49:57;51209.06;;;-142.34;23.19
12951;BME280;6540;50.858;7.232;2022-08-19T10:52:46;51253.44;;;-142.34;23.50
12951;BME280;6540;50.858;7.232;2022-08-19T10:55:12;51338.16;;;-142.34;24.78
12951;BME280;6540;50.858;7.232;2022-08-19T10:57:56;51406.72;;;-142.34;25.78
12951;BME280;6540;50.858;7.232;2022-08-19T11:00:23;51346.22;;;-142.34;24.95
12951;BME280;6540;50.858;7.232;2022-08-19T11:02:49;51263.53;;;-142.34;23.67
12951;BME280;6540;50.858;7.232;2022-08-19T11:05:15;51311.94;;;-142.34;23.85
12951;BME280;6540;50.858;7.232;2022-08-19T11:07:41;51315.97;;;-142.34;24.20
12951;BME280;6540;50.858;7.232;2022-08-19T11:10:09;51257.47;;;-142.34;22.93
12951;BME280;6540;50.858;7.232;2022-08-19T11:12:37;51203.00;;;-142.34;22.33
12951;BME280;6540;50.858;7.232;2022-08-19T11:15:08;51166.69;;;-142.34;22.33
12951;BME280;6540;50.858;7.232;2022-08-19T11:17:34;51156.63;;;-142.34;21.76
12951;BME280;6540;50.858;7.232;2022-08-19T11:20:01;51346.22;;;-142.34;24.34
12951;BME280;6540;50.858;7.232;2022-08-19T11:22:28;51233.25;;;-142.34;22.81
12951;BME280;6540;50.858;7.232;2022-08-19T11:24:53;51168.72;;;-142.34;22.35
12951;BME280;6540;50.858;7.232;2022-08-19T11:27:20;51213.09;;;-142.34;22.67
12951;BME280;6540;50.858;7.232;2022-08-19T11:29:46;51277.63;;;-142.34;23.21
12951;BME280;6540;50.858;7.232;2022-08-19T11:32:15;51198.97;;;-142.34;22.23
12951;BME280;6540;50.858;7.232;2022-08-19T11:34:41;51176.78;;;-142.34;22.18
12951;BME280;6540;50.858;7.232;2022-08-19T11:37:07;51188.88;;;-142.34;21.89
12951;BME280;6540;50.858;7.232;2022-08-19T11:39:35;51140.47;;;-142.34;21.64
12951;BME280;6540;50.858;7.232;2022-08-19T11:42:25;51233.25;;;-142.34;22.60
12951;BME280;6540;50.858;7.232;2022-08-19T11:45:20;51257.47;;;-142.34;22.14
12951;BME280;6540;50.858;7.232;2022-08-19T11:47:45;51184.84;;;-142.34;21.43
12951;BME280;6540;50.858;7.232;2022-08-19T11:50:12;51237.28;;;-142.34;22.43
12951;BME280;6540;50.858;7.232;2022-08-19T11:52:37;51146.53;;;-142.34;21.34
12951;BME280;6540;50.858;7.232;2022-08-19T11:55:03;51192.91;;;-142.34;21.59
12951;BME280;6540;50.858;7.232;2022-08-19T11:57:29;51285.72;;;-142.34;23.38
12951;BME280;6540;50.858;7.232;2022-08-19T11:59:54;51305.88;;;-142.34;23.43
12951;BME280;6540;50.858;7.232;2022-08-19T12:02:19;51205.03;;;-142.34;21.92
12951;BME280;6540;50.858;7.232;2022-08-19T12:04:47;51368.41;;;-142.34;24.73
12951;BME280;6540;50.858;7.232;2022-08-19T12:07:12;51307.88;;;-142.34;24.00
12951;BME280;6540;50.858;7.232;2022-08-19T12:09:38;51309.91;;;-142.34;23.69
12951;BME280;6540;50.858;7.232;2022-08-19T12:12:04;51229.22;;;-142.34;22.57
12951;BME280;6540;50.858;7.232;2022-08-19T12:14:30;51239.31;;;-142.34;22.60
12951;BME280;6540;50.858;7.232;2022-08-19T12:16:56;51281.66;;;-142.34;23.30
12951;BME280;6540;50.858;7.232;2022-08-19T12:19:21;51201.00;;;-142.34;22.99
12951;BME280;6540;50.858;7.232;2022-08-19T12:21:47;51084.00;;;-142.34;21.11
12951;BME280;6540;50.858;7.232;2022-08-19T12:24:13;51164.69;;;-142.34;21.84
12951;BME280;6540;50.858;7.232;2022-08-19T12:26:40;51176.78;;;-142.34;22.12
12951;BME280;6540;50.858;7.232;2022-08-19T12:29:06;51162.66;;;-142.34;22.14
12951;BME280;6540;50.858;7.232;2022-08-19T12:31:33;51188.88;;;-142.34;22.37
12951;BME280;6540;50.858;7.232;2022-08-19T12:33:59;51257.47;;;-142.34;23.13
12951;BME280;6540;50.858;7.232;2022-08-19T12:36:25;51073.94;;;-142.34;20.79
12951;BME280;6540;50.858;7.232;2022-08-19T12:38:51;51100.16;;;-142.34;21.11
12951;BME280;6540;50.858;7.232;2022-08-19T12:41:18;51172.75;;;-142.34;22.17
12951;BME280;6540;50.858;7.232;2022-08-19T12:43:46;51196.97;;;-142.34;21.77
12951;BME280;6540;50.858;7.232;2022-08-19T12:46:14;51047.72;;;-142.34;20.32
12951;BME280;6540;50.858;7.232;2022-08-19T12:48:40;51303.84;;;-142.34;22.75
12951;BME280;6540;50.858;7.232;2022-08-19T12:51:14;51237.28;;;-142.34;22.70
12951;BME280;6540;50.858;7.232;2022-08-19T12:53:40;51160.66;;;-142.34;21.39
12951;BME280;6540;50.858;7.232;2022-08-19T12:56:07;51201.00;;;-142.34;21.81
12951;BME280;6540;50.858;7.232;2022-08-19T12:58:33;51188.88;;;-142.34;21.44
12951;BME280;6540;50.858;7.232;2022-08-19T13:01:05;51241.34;;;-142.34;22.24
12951;BME280;6540;50.858;7.232;2022-08-19T13:03:30;51336.13;;;-142.34;22.97
12951;BME280;6540;50.858;7.232;2022-08-19T13:05:56;51257.47;;;-142.34;22.77
12951;BME280;6540;50.858;7.232;2022-08-19T13:08:22;51334.13;;;-142.34;23.14